Observations for RENNES ST. JACQUES, France (LFRN)

LFRN 200730Z AUTO 00000KT 9000 OVC043 09/09 Q1034 NOSIG 
LFRN 200700Z AUTO 31001KT 9999 OVC043 08/08 Q1034 NOSIG 
LFRN 200630Z AUTO 32003KT 9999 OVC042 08/08 Q1034 NOSIG 
LFRN 200600Z AUTO 16002KT 9999 OVC042 08/08 Q1033 NOSIG 
LFRN 200530Z AUTO 18002KT 9999 OVC042 08/08 Q1033 NOSIG 
LFRN 200500Z AUTO 20002KT 9999 OVC043 08/08 Q1033 TEMPO 3000 BR VV///   
LFRN 200430Z AUTO 00000KT 9999 OVC044 08/08 Q1033 TEMPO 3000 BR VV///   
LFRN 200400Z AUTO 00000KT 9999 OVC044 08/07 Q1033 TEMPO 0400 FG VV///   
LFRN 200330Z AUTO 00000KT 9999 OVC044 08/07 Q1032 TEMPO 0400 FG VV///   
LFRN 200300Z AUTO 21001KT 9999 FEW039 OVC045 08/07 Q1032 TEMPO 0400 FG VV///
LFRN 200230Z AUTO 15001KT 9999 OVC046 08/07 Q1033 TEMPO 0400 FG VV///   
LFRN 200200Z AUTO 00000KT 9999 OVC046 09/07 Q1033 TEMPO 0400 FG VV///   
LFRN 200130Z AUTO 32001KT 9999 OVC047 08/07 Q1033 TEMPO 0400 FG VV///   
LFRN 200100Z AUTO 24002KT 9999 OVC047 08/07 Q1033 TEMPO 0400 FG VV///   
LFRN 200030Z AUTO 00000KT 9999 OVC048 09/07 Q1033 TEMPO 0400 FG VV///   
LFRN 200000Z AUTO 22003KT 9999 OVC049 09/07 Q1033 TEMPO 3000 BR BKN003  
LFRN 192330Z AUTO 21004KT 9999 OVC046 09/07 Q1033 TEMPO 3000 BR BKN003  
LFRN 192300Z AUTO 18003KT 9999 OVC048 08/07 Q1033 TEMPO 3000 BR BKN003  
LFRN 192230Z AUTO VRB02KT 9999 OVC045 09/07 Q1033 TEMPO 3000 BR BKN003  
LFRN 192200Z AUTO 23001KT 9999 FEW041 OVC048 09/07 Q1033 NOSIG  
LFRN 192130Z AUTO 18002KT 9999 FEW042 OVC050 09/07 Q1033 NOSIG  
LFRN 192100Z AUTO 00000KT 9999 FEW043 OVC052 08/06 Q1032 NOSIG  
LFRN 192030Z AUTO 21001KT CAVOK 08/06 Q1032 NOSIG   
LFRN 192000Z AUTO 19003KT CAVOK 09/06 Q1031 NOSIG   
LFRN 191930Z AUTO 18002KT CAVOK 10/07 Q1031 NOSIG   
LFRN 191900Z AUTO 16003KT CAVOK 10/07 Q1031 NOSIG   
LFRN 191830Z AUTO VRB02KT 9999 FEW049 OVC056 11/06 Q1031 NOSIG  
LFRN 191800Z AUTO 00000KT 9999 BKN046 OVC054 11/05 Q1031 NOSIG  
LFRN 191730Z AUTO 00000KT CAVOK 11/05 Q1030 NOSIG   
LFRN 191700Z AUTO 00000KT CAVOK 11/05 Q1030 TEMPO 4000 SHRA BKN014  
LFRN 191630Z AUTO 00000KT 9999 OVC048 12/06 Q1030 TEMPO 4000 SHRA BKN014
LFRN 191600Z AUTO 00000KT 9999 OVC049 12/05 Q1030 TEMPO 4000 SHRA BKN014
LFRN 191530Z AUTO 00000KT CAVOK 12/05 Q1030 TEMPO 4000 SHRA BKN014  
LFRN 191500Z AUTO 00000KT 9999 OVC047 12/05 Q1030 TEMPO 4000 SHRA BKN014
LFRN 191430Z AUTO VRB01KT 9999 OVC042 11/05 Q1030 TEMPO 4000 SHRA BKN014
LFRN 191400Z AUTO VRB03KT 9999 OVC041 11/06 Q1030 TEMPO 4000 SHRA BKN014
LFRN 191330Z AUTO 29004KT 9999 OVC041 11/07 Q1030 TEMPO 4000 SHRA BKN014
LFRN 191300Z AUTO VRB02KT 9999 FEW023 OVC047 12/06 Q1030 TEMPO 4000 SHRA BKN014 
LFRN 191230Z AUTO 32003KT 280V010 9999 FEW022 OVC047 11/07 Q1030 TEMPO 4000 SHRA BKN014 
LFRN 191200Z AUTO 30004KT 260V340 9999 BKN038 OVC046 11/07 Q1030 TEMPO 4000 SHRA BKN014 
LFRN 191130Z AUTO VRB03KT 9999 OVC040 10/07 Q1030 TEMPO 4000 SHRA BKN014
LFRN 191100Z AUTO VRB03KT 9999 FEW015 OVC044 11/07 Q1030 TEMPO 4000 SHRA BKN012 
LFRN 191030Z AUTO VRB01KT 9999 SCT013 BKN028 OVC045 11/07 Q1030 TEMPO 4000 SHRA BKN012  
LFRN 191000Z AUTO VRB01KT 9999 BKN009 BKN030 BKN035 10/08 Q1030 BECMG BKN020
LFRN 190930Z AUTO VRB01KT 9999 SCT009 BKN024 OVC040 09/08 Q1029 NOSIG   
LFRN 190900Z AUTO 00000KT 9000 SCT007 BKN018 BKN025 08/08 Q1029 TEMPO 4000 RADZ BKN004  
LFRN 190830Z AUTO 00000KT 7000 FEW006 OVC019 08/08 Q1029 TEMPO 4000 RADZ BKN004 
LFRN 190800Z AUTO 00000KT 9999 BKN006 OVC019 07/07 Q1029 TEMPO 4000 RADZ BKN004 
LFRN 190730Z AUTO 00000KT 9999 BKN006 BKN021 OVC028 07/07 Q1029 TEMPO 4000 RADZ BKN004  
LFRN 190700Z AUTO 00000KT 8000 BKN004 OVC023 07/07 Q1028 TEMPO 4000 RADZ